Latest Weather Observations for Cape Sorell

IDT60801

Issued at 2:02 pm EST Friday 1 July 2016 (issued every 30 minutes, with the page automatically refreshed every 10 minutes)

About weather observations | Map of weather stations | Latest weather observations for TAS | Other Formats
Station Details ID: 097000 Name: CAPE SORELL Lat: -42.20 Lon: 145.17 Height: 19.3 m
Data from the previous 72 hours. | See also: Recent months at Cape Sorell
Date/Time
EST
Temp
°C
App
Temp
°C
Dew
Point
°C
Rel
Hum
%
Delta-T
°C
Wind Press
QNH
hPa
Press
MSL
hPa
Rain since
9am
mm
Dir  Spd
km/h
Gust
km/h
Spd
kts
Gust
kts
01/02:00pm 12.1 7.2 8.6 79 1.7 NW 24 33 13 18 1013.3 1013.4 0.6
01/01:30pm 11.8 6.5 8.6 81 1.6 NW 26 37 14 20 1013.5 1013.6 0.6
01/01:00pm 11.4 8.2 8.6 83 1.4 NW 15 24 8 13 1013.7 1013.8 0.6
01/12:30pm 10.7 5.7 8.1 84 1.3 NW 24 32 13 17 1013.8 1013.9 0.6
01/12:00pm 11.0 7.1 8.8 86 1.1 NW 19 24 10 13 1014.1 1014.2 0.6
01/11:30am 10.3 5.0 7.0 80 1.6 WNW 24 37 13 20 1014.4 1014.5 0.4
01/11:00am 11.1 7.4 7.8 80 1.6 NW 17 24 9 13 1014.5 1014.6 0.0
01/10:30am 11.5 6.9 5.8 68 2.7 WNW 19 24 10 13 1014.3 1014.4 0.0
01/10:00am 10.8 6.0 5.8 71 2.3 WNW 20 26 11 14 1014.1 1014.2 0.0
01/09:30am 10.9 5.6 5.2 68 2.6 W 22 35 12 19 1013.7 1013.8 0.0
01/09:00am 10.4 4.7 4.8 68 2.5 W 24 35 13 19 1013.5 1013.6 15.6
01/08:30am 10.3 4.3 5.3 71 2.3 W 26 33 14 18 1013.1 1013.2 15.6
01/08:00am 10.3 4.0 5.9 74 2.0 WSW 28 35 15 19 1012.8 1012.9 15.6
01/07:30am 10.2 3.4 6.7 79 1.6 WSW 32 41 17 22 1012.3 1012.4 15.6
01/07:00am 10.4 3.9 8.3 87 1.0 SW 32 37 17 20 1011.9 1012.0 15.6
01/06:30am 10.2 3.8 8.6 90 0.8 SW 32 41 17 22 1011.4 1011.5 15.6
01/06:00am 9.8 2.8 8.4 91 0.7 SW 35 41 19 22 1011.1 1011.2 15.6
01/05:30am 10.1 3.2 8.7 91 0.7 SW 35 39 19 21 1010.5 1010.6 15.6
01/05:00am 10.1 4.4 8.5 90 0.8 WSW 28 35 15 19 1010.3 1010.4 14.4
01/04:51am 10.2 4.9 8.5 89 0.8 WSW 26 37 14 20 1010.1 1010.2 13.4
01/04:30am 10.1 7.2 8.2 88 0.9 NNE 13 17 7 9 1009.8 1009.9 12.6
01/04:00am 9.8 7.5 7.6 86 1.1 NE 9 15 5 8 1009.6 1009.7 12.6
01/03:30am 9.2 7.5 5.9 80 1.5 ESE 4 7 2 4 1009.5 1009.6 12.6
01/03:00am 9.9 6.2 6.3 78 1.7 SW 15 19 8 10 1009.2 1009.3 12.6
01/02:30am 10.0 5.5 6.9 81 1.5 SW 20 26 11 14 1008.8 1008.9 12.6
01/02:00am 9.9 5.6 7.8 87 1.0 SW 20 24 11 13 1008.5 1008.6 12.6
01/01:30am 9.3 5.6 8.1 92 0.6 SW 17 30 9 16 1007.9 1008.0 12.6
01/01:00am 8.7 6.8 7.5 92 0.6 NE 7 9 4 5 1007.6 1007.7 12.6
01/12:30am 8.9 6.7 7.7 92 0.6 NE 9 11 5 6 1007.2 1007.3 12.6
01/12:00am 8.8 6.5 7.6 92 0.6 NE 9 11 5 6 1006.8 1006.9 12.6
 
Date/Time
EST
Temp
°C
App
Temp
°C
Dew
Point
°C
Rel
Hum
%
Delta-T
°C
Wind Press
QNH
hPa
Press
MSL
hPa
Rain since
9am
mm
Dir  Spd
km/h
Gust
km/h
Spd
kts
Gust
kts
30/11:30pm 8.8 6.5 7.6 92 0.6 ENE 9 11 5 6 1006.4 1006.5 12.6
30/11:00pm 9.1 7.4 7.7 91 0.7 NE 6 7 3 4 1006.1 1006.2 12.6
30/10:30pm 8.9 7.9 7.4 90 0.7 SE 2 6 1 3 1005.9 1006.0 12.2
30/10:00pm 8.5 6.1 7.0 90 0.7 E 9 9 5 5 1005.4 1005.5 12.0
30/09:30pm 8.8 6.8 7.3 90 0.7 NE 7 9 4 5 1004.9 1004.9 12.0
30/09:00pm 9.0 7.0 7.3 89 0.8 ENE 7 9 4 5 1004.7 1004.7 12.0
30/08:30pm 9.7 7.9 8.0 89 0.8 NE 7 11 4 6 1004.1 1004.1 12.0
30/08:00pm 9.8 6.9 8.2 90 0.8 N 13 17 7 9 1003.7 1003.7 12.0
30/07:30pm 9.8 6.2 8.2 90 0.8 N 17 22 9 12 1003.6 1003.6 12.0
30/07:00pm 9.9 5.4 8.5 91 0.7 N 22 30 12 16 1003.3 1003.3 12.0
30/06:30pm 10.1 4.1 8.7 91 0.7 N 30 35 16 19 1002.6 1002.6 11.8
30/06:00pm 10.3 4.7 8.9 91 0.7 N 28 33 15 18 1002.2 1002.2 11.0
30/05:30pm 10.5 4.2 9.1 91 0.7 N 32 39 17 21 1001.6 1001.6 9.2
30/05:00pm 10.6 4.4 9.2 91 0.7 N 32 39 17 21 1000.8 1000.8 9.2
30/04:30pm 10.6 4.2 9.2 91 0.7 N 33 39 18 21 1000.4 1000.4 9.0
30/04:00pm 10.8 5.7 9.2 90 0.8 N 26 32 14 17 1000.4 1000.4 8.6
30/03:30pm 11.0 4.7 9.6 91 0.7 N 33 39 18 21 999.8 999.8 8.2
30/03:00pm 10.7 3.9 9.1 90 0.8 N 35 46 19 25 999.5 999.5 8.2
30/02:30pm 10.9 3.4 9.3 90 0.8 N 39 48 21 26 999.3 999.3 8.0
30/02:16pm 11.1 2.3 9.7 91 0.7 N 46 65 25 35 999.3 999.3 8.0
30/02:00pm 11.0 2.5 9.4 90 0.8 N 44 54 24 29 999.0 999.0 6.6
30/01:30pm 11.3 1.7 9.6 89 0.9 N 50 61 27 33 999.1 999.1 4.6
30/01:00pm 11.0 2.5 9.3 89 0.9 N 44 56 24 30 999.5 999.5 2.4
30/12:30pm 11.4 1.0 9.3 87 1.1 N 54 65 29 35 999.6 999.6 0.8
30/12:00pm 12.0 1.4 8.3 78 1.8 N 54 69 29 37 999.6 999.6 0.2
30/11:30am 11.8 2.3 8.3 79 1.7 N 48 61 26 33 1000.3 1000.3 0.2
30/11:00am 11.5 0.8 8.2 80 1.6 NNE 54 65 29 35 1000.5 1000.5 0.2
30/10:30am 11.3 0.0 8.0 80 1.6 N 57 69 31 37 1000.8 1000.8 0.2
30/10:09am 11.1 -0.2 8.1 82 1.5 N 57 76 31 41 1000.9 1000.9 0.0
30/10:00am 11.4 0.2 8.3 81 1.5 N 57 67 31 36 1001.3 1001.3 0.0
30/09:30am 11.9 0.6 7.8 76 2.0 N 57 72 31 39 1001.5 1001.5 0.0
30/09:14am 12.1 1.4 8.0 76 2.0 N 54 72 29 39 1001.8 1001.8 0.0
30/09:00am 12.1 0.8 7.8 75 2.1 N 57 76 31 41 1001.7 1001.7 0.8
30/08:30am 12.3 0.2 7.6 73 2.3 N 61 80 33 43 1001.4 1001.4 0.8
30/08:00am 12.2 -0.3 7.5 73 2.3 N 63 76 34 41 1001.6 1001.6 0.8
30/07:30am 12.1 -0.5 7.4 73 2.3 N 63 74 34 40 1002.0 1002.0 0.8
30/07:00am 12.0 -1.0 7.3 73 2.3 N 65 78 35 42 1002.4 1002.4 0.8
30/06:39am 12.1 -0.4 7.8 75 2.1 N 63 82 34 44 1002.9 1002.9 0.8
30/06:30am 12.1 -0.9 7.4 73 2.3 N 65 80 35 43 1002.7 1002.7 0.8
30/06:09am 12.1 -0.1 7.4 73 2.3 N 61 82 33 44 1003.1 1003.1 0.8
30/06:00am 12.1 -0.1 7.4 73 2.3 N 61 74 33 40 1003.5 1003.5 0.8
30/05:30am 12.0 -0.2 7.5 74 2.2 N 61 76 33 41 1003.8 1003.8 0.8
30/05:00am 12.0 -0.6 7.1 72 2.4 N 63 78 34 42 1004.2 1004.2 0.8
30/04:30am 11.9 -0.4 7.0 72 2.3 N 61 78 33 42 1004.8 1004.8 0.8
30/04:25am 12.0 0.1 6.9 71 2.4 N 59 78 32 42 1005.1 1005.2 0.8
30/04:00am 12.1 -1.1 6.2 67 2.8 N 65 82 35 44 1005.2 1005.3 0.8
30/03:38am 12.3 -1.2 6.6 68 2.7 N 67 85 36 46 1005.1 1005.2 0.8
30/03:30am 12.3 -1.3 6.4 67 2.8 N 67 85 36 46 1005.4 1005.5 0.8
30/03:01am 12.2 -0.7 6.0 66 2.9 N 63 82 34 44 1005.9 1006.0 0.8
30/03:00am 12.3 -0.1 6.4 67 2.8 N 61 80 33 43 1006.3 1006.4 0.8
30/02:30am 12.2 -0.3 6.0 66 2.9 N 61 80 33 43 1007.0 1007.1 0.8
30/02:20am 12.1 0.0 5.9 66 2.9 N 59 80 32 43 1006.9 1007.0 0.8
30/02:00am 12.3 -0.1 6.4 67 2.8 N 61 76 33 41 1007.8 1007.9 0.8
30/01:30am 12.1 0.1 6.6 69 2.6 N 59 70 32 38 1008.3 1008.4 0.8
30/01:00am 12.1 1.1 6.8 70 2.5 N 54 65 29 35 1008.9 1009.0 0.8
30/12:30am 12.1 0.5 6.6 69 2.6 N 57 69 31 37 1009.7 1009.8 0.8
30/12:05am 12.3 2.2 7.2 71 2.5 N 50 69 27 37 1010.6 1010.7 0.8
30/12:00am 12.3 1.3 7.0 70 2.5 N 54 69 29 37 1010.7 1010.8 0.8
 
Date/Time
EST
Temp
°C
App
Temp
°C
Dew
Point
°C
Rel
Hum
%
Delta-T
°C
Wind Press
QNH
hPa
Press
MSL
hPa
Rain since
9am
mm
Dir  Spd
km/h
Gust
km/h
Spd
kts
Gust
kts
29/11:30pm 12.1 0.9 7.4 73 2.3 N 56 69 30 37 1010.8 1010.9 0.8
29/11:00pm 12.2 0.4 7.3 72 2.4 N 59 82 32 44 1011.5 1011.6 0.8
29/10:57pm 12.5 1.1 7.6 72 2.4 N 57 76 31 41 1011.3 1011.4 0.8
29/10:30pm 12.3 0.9 7.6 73 2.3 N 57 67 31 36 1011.8 1011.9 0.8
29/10:00pm 12.4 3.6 7.9 74 2.2 N 44 59 24 32 1012.8 1012.9 0.8
29/09:30pm 12.5 3.2 7.6 72 2.4 NNE 46 54 25 29 1013.3 1013.4 0.8
29/09:00pm 12.6 3.3 7.5 71 2.5 N 46 57 25 31 1013.7 1013.8 0.8
29/08:30pm 12.5 3.3 7.8 73 2.3 N 46 54 25 29 1014.1 1014.2 0.8
29/08:00pm 12.7 3.5 8.2 74 2.2 N 46 57 25 31 1014.5 1014.6 0.8
29/07:30pm 12.6 3.9 8.3 75 2.1 N 44 54 24 29 1014.7 1014.8 0.8
29/07:00pm 12.6 4.1 8.7 77 1.9 N 43 59 23 32 1014.9 1015.0 0.8
29/06:30pm 12.6 3.1 8.5 76 2.0 N 48 57 26 31 1015.1 1015.2 0.8
29/06:00pm 12.4 3.8 8.9 79 1.8 N 44 54 24 29 1015.3 1015.4 0.8
29/05:30pm 12.4 3.8 8.9 79 1.8 N 44 54 24 29 1015.6 1015.7 0.8
29/05:00pm 12.2 5.5 9.8 85 1.2 N 35 44 19 24 1016.2 1016.2 0.8
29/04:30pm 11.4 5.6 9.3 87 1.1 NNW 30 41 16 22 1016.7 1016.7 0.8
29/04:09pm 12.6 7.3 10.0 84 1.3 NNW 28 50 15 27 1017.0 1017.0 0.0
29/04:00pm 12.5 8.0 10.0 85 1.3 NNW 24 39 13 21 1017.1 1017.1 0.0
29/03:30pm 12.2 3.8 9.0 81 1.6 N 43 54 23 29 1017.2 1017.2 0.0
29/03:21pm 13.4 6.6 9.3 76 2.1 N 35 54 19 29 1017.2 1017.2 0.0
29/03:00pm 13.9 7.7 9.5 75 2.2 N 32 39 17 21 1017.5 1017.5 0.0
29/02:30pm 13.7 7.8 9.2 74 2.3 N 30 37 16 20 1017.8 1017.8 0.0
29/02:00pm 14.3 9.1 8.9 70 2.7 NNW 26 39 14 21 1018.3 1018.3 0.0
29/01:30pm 14.5 9.8 9.3 71 2.7 NNW 24 35 13 19 1018.4 1018.4 0.0
29/01:00pm 14.4 8.9 9.0 70 2.7 NNW 28 37 15 20 1018.9 1018.9 0.0
29/12:30pm 14.2 8.7 9.0 71 2.6 NW 28 33 15 18 1019.2 1019.2 0.0
29/12:00pm 14.0 9.1 9.8 76 2.2 NW 26 39 14 21 1019.6 1019.6 0.0
29/11:30am 13.5 8.3 10.1 80 1.8 NW 28 37 15 20 1020.1 1020.1 0.0
29/11:00am 13.4 9.5 10.8 84 1.4 NW 22 32 12 17 1020.4 1020.4 0.0
29/10:30am 13.1 8.0 10.6 85 1.3 NW 28 44 15 24 1020.3 1020.3 0.0
29/10:00am 13.0 8.7 10.9 87 1.1 NW 24 35 13 19 1020.1 1020.1 0.0
29/09:30am 12.9 8.3 11.0 88 1.0 NW 26 35 14 19 1020.0 1020.0 0.0
29/09:00am 12.8 8.2 11.0 89 0.9 NW 26 39 14 21 1020.1 1020.1 8.0
29/08:30am 12.7 6.9 10.9 89 0.9 NW 32 41 17 22 1019.9 1019.9 8.0
29/08:00am 12.7 6.8 11.3 91 0.7 WNW 33 43 18 23 1019.5 1019.5 8.0
29/07:30am 12.6 6.7 11.3 92 0.7 WNW 33 46 18 25 1019.3 1019.3 8.0
29/07:00am 12.5 6.7 11.4 93 0.6 WNW 33 44 18 24 1019.0 1019.0 8.0
29/06:30am 11.9 6.9 10.8 93 0.6 WSW 28 35 15 19 1018.9 1018.9 7.6
29/06:00am 11.8 5.7 10.5 92 0.7 WSW 33 39 18 21 1018.6 1018.6 6.8
29/05:30am 11.9 5.5 10.6 92 0.7 WSW 35 44 19 24 1018.4 1018.4 5.8
29/05:00am 12.2 5.8 10.8 91 0.7 W 35 48 19 26 1018.1 1018.1 5.0
29/04:45am 12.2 4.6 10.4 89 0.9 WNW 41 59 22 32 1017.8 1017.8 2.8
29/04:43am 12.6 5.1 11.0 90 0.8 WNW 41 59 22 32 1017.7 1017.7 2.2
29/04:30am 12.7 6.7 10.9 89 0.9 NW 33 48 18 26 1017.6 1017.6 1.6
29/04:00am 12.6 7.1 10.7 88 1.0 NW 30 44 16 24 1017.8 1017.8 1.4
29/03:31am 12.6 6.7 10.5 87 1.1 NW 32 50 17 27 1017.9 1017.9 1.4
29/03:30am 12.6 6.7 10.5 87 1.1 NW 32 48 17 26 1017.9 1017.9 1.4
29/03:00am 12.8 6.8 10.2 84 1.3 NW 32 50 17 27 1017.8 1017.8 1.2
29/02:50am 12.7 6.5 9.9 83 1.4 NW 33 52 18 28 1017.9 1017.9 1.2
29/02:30am 13.2 6.5 9.8 80 1.7 NW 35 44 19 24 1017.8 1017.8 1.2
29/02:00am 13.2 6.9 9.6 79 1.8 NW 33 50 18 27 1017.9 1017.9 1.2
29/01:53am 13.1 6.9 9.5 79 1.8 NW 32 50 17 27 1017.9 1017.9 1.2
29/01:30am 13.1 6.9 9.5 79 1.8 NW 32 44 17 24 1017.8 1017.8 1.2
29/01:00am 13.1 7.3 9.5 79 1.8 NW 30 44 16 24 1018.0 1018.0 1.2
29/12:30am 13.2 7.5 9.8 80 1.7 NW 30 46 16 25 1017.9 1017.9 1.2
29/12:00am 13.2 6.9 9.6 79 1.8 NW 33 44 18 24 1018.1 1018.1 1.2
 
Date/Time
EST
Temp
°C
App
Temp
°C
Dew
Point
°C
Rel
Hum
%
Delta-T
°C
Wind Press
QNH
hPa
Press
MSL
hPa
Rain since
9am
mm
Dir  Spd
km/h
Gust
km/h
Spd
kts
Gust
kts
28/11:30pm 13.1 7.4 9.9 81 1.6 NW 30 44 16 24 1018.1 1018.1 1.2
28/11:00pm 13.1 6.5 9.9 81 1.6 NW 35 46 19 25 1018.1 1018.1 1.2
28/10:30pm 13.1 6.9 10.1 82 1.5 NW 33 43 18 23 1018.1 1018.1 1.2
28/10:00pm 13.2 6.7 10.4 83 1.5 NW 35 46 19 25 1018.0 1018.0 1.2
28/09:30pm 13.0 7.5 10.4 84 1.3 NW 30 43 16 23 1017.9 1017.9 1.2
28/09:00pm 12.8 6.8 10.2 84 1.3 NW 32 43 17 23 1017.7 1017.7 1.2
28/08:30pm 12.8 5.9 10.2 84 1.3 NW 37 52 20 28 1017.8 1017.8 1.2
28/08:00pm 12.7 6.8 10.6 87 1.1 NW 32 46 17 25 1017.6 1017.6 1.2
28/07:31pm 12.7 6.8 10.6 87 1.1 NW 32 50 17 27 1017.2 1017.2 1.2
28/07:30pm 12.7 7.2 10.6 87 1.1 NW 30 46 16 25 1017.4 1017.4 1.2
28/07:23pm 12.8 7.7 10.7 87 1.1 NW 28 46 15 25 1017.3 1017.3 1.2
28/07:00pm 12.9 6.5 10.6 86 1.2 NW 35 50 19 27 1017.1 1017.1 1.0
28/06:30pm 12.9 6.1 10.8 87 1.1 NW 37 52 20 28 1016.9 1016.9 1.0
28/06:00pm 13.2 7.2 10.9 86 1.2 NW 33 44 18 24 1016.7 1016.7 0.8
28/05:30pm 13.1 6.7 10.8 86 1.2 NW 35 46 19 25 1016.5 1016.5 0.8
28/05:00pm 13.1 7.2 11.0 87 1.1 NW 33 44 18 24 1016.3 1016.3 0.8
28/04:30pm 12.9 6.2 11.0 88 1.0 NW 37 50 20 27 1016.1 1016.1 0.8
28/04:00pm 13.0 8.1 11.2 89 0.9 NW 28 41 15 22 1016.1 1016.1 0.8
28/03:30pm 12.9 7.2 11.1 89 0.9 NW 32 46 17 25 1016.0 1016.0 0.8
28/03:00pm 13.2 7.5 11.3 88 1.0 NW 32 44 17 24 1016.0 1016.0 0.8
28/02:30pm 12.6 6.6 10.8 89 0.9 WNW 33 44 18 24 1015.8 1015.8 0.8

Other Formats:

Comma delimited format used in spreadsheet applications
http://www.bom.gov.au/fwo/IDT60801/IDT60801.94974.axf

JavaScript Object Notation format (JSON) in row-major order
http://www.bom.gov.au/fwo/IDT60801/IDT60801.94974.json